createdAt,value
2022-09-03T00:00:58.334Z,92.70
2022-09-03T00:03:34.119Z,93.00
2022-09-03T00:06:10.946Z,92.70
2022-09-03T00:08:54.134Z,92.80
2022-09-03T00:11:52.520Z,92.80
2022-09-03T00:14:26.819Z,92.70
2022-09-03T00:16:57.875Z,92.90
2022-09-03T00:19:30.145Z,92.90
2022-09-03T00:22:02.672Z,93.00
2022-09-03T00:24:33.967Z,92.90
2022-09-03T00:27:05.229Z,93.00
2022-09-03T00:30:06.406Z,93.10
2022-09-03T00:32:52.185Z,93.10
2022-09-03T00:35:50.424Z,93.20
2022-09-03T00:38:17.125Z,93.30
2022-09-03T00:41:17.433Z,93.40
2022-09-03T00:44:14.791Z,93.30
2022-09-03T00:46:56.378Z,93.40
2022-09-03T00:49:37.420Z,93.60
2022-09-03T00:52:17.647Z,93.70
2022-09-03T00:55:14.378Z,93.80
2022-09-03T00:58:02.592Z,93.80
2022-09-03T01:00:30.341Z,93.90
2022-09-03T01:03:24.074Z,94.00
2022-09-03T01:06:38.151Z,94.10
2022-09-03T01:09:26.667Z,94.30
2022-09-03T01:12:17.508Z,94.30
2022-09-03T01:15:13.708Z,94.50
2022-09-03T01:17:51.033Z,94.60
2022-09-03T01:20:35.050Z,94.70
2022-09-03T01:23:43.276Z,94.80
2022-09-03T01:26:37.187Z,94.90
2022-09-03T01:29:20.261Z,95.10
2022-09-03T01:31:53.115Z,95.30
2022-09-03T01:34:42.922Z,95.30
2022-09-03T01:37:44.133Z,95.50
2022-09-03T01:40:37.658Z,95.50
2022-09-03T01:43:14.024Z,95.70
2022-09-03T01:46:00.771Z,95.80
2022-09-03T01:48:48.647Z,95.90
2022-09-03T01:51:31.603Z,96.00
2022-09-03T01:54:21.670Z,96.20
2022-09-03T01:57:35.790Z,96.30
2022-09-03T02:00:31.632Z,96.40
2022-09-03T02:03:05.686Z,96.60
2022-09-03T02:05:32.569Z,96.70
2022-09-03T02:08:01.999Z,96.90
2022-09-03T02:10:33.959Z,97.00
2022-09-03T02:13:25.760Z,97.00
2022-09-03T02:15:56.190Z,97.10
2022-09-03T02:18:27.158Z,97.30
2022-09-03T02:20:55.147Z,97.80
2022-09-03T02:23:24.678Z,97.60
2022-09-03T02:26:00.615Z,96.90
2022-09-03T02:28:30.693Z,97.50
2022-09-03T02:30:57.909Z,97.70
2022-09-03T02:33:25.001Z,97.90
2022-09-03T02:35:52.537Z,97.80
2022-09-03T02:38:26.675Z,97.90
2022-09-03T02:40:56.147Z,98.00
2022-09-03T02:43:28.894Z,98.10
2022-09-03T02:46:01.411Z,98.20
2022-09-03T02:48:28.079Z,98.10
2022-09-03T02:50:54.843Z,98.30
2022-09-03T02:53:21.689Z,98.50
2022-09-03T02:55:48.376Z,98.70
2022-09-03T02:58:15.143Z,98.60
2022-09-03T03:00:41.863Z,98.70
2022-09-03T03:03:08.518Z,99.20
2022-09-03T03:05:44.911Z,99.30
2022-09-03T03:08:15.146Z,99.40
2022-09-03T03:10:43.828Z,99.50
2022-09-03T03:13:10.779Z,99.50
2022-09-03T03:15:37.390Z,99.50
2022-09-03T03:18:04.071Z,99.60
2022-09-03T03:20:30.771Z,99.70
2022-09-03T03:22:57.398Z,99.80
2022-09-03T03:25:24.030Z,99.90
2022-09-03T03:27:50.730Z,99.90
2022-09-03T03:30:17.331Z,99.90
2022-09-03T03:32:44.907Z,99.90
2022-09-03T03:35:11.831Z,99.90
2022-09-03T03:37:38.544Z,99.90
2022-09-03T03:40:06.126Z,99.90
2022-09-03T03:42:36.010Z,99.90
2022-09-03T03:45:02.767Z,99.90
2022-09-03T03:47:31.079Z,99.90
2022-09-03T03:49:58.439Z,99.90
2022-09-03T03:52:26.014Z,99.90
2022-09-03T03:54:53.856Z,99.90
2022-09-03T03:57:23.284Z,99.90
2022-09-03T03:59:49.948Z,99.90
2022-09-03T04:02:18.639Z,99.90
2022-09-03T04:04:45.403Z,99.90
2022-09-03T04:07:12.088Z,99.90
2022-09-03T04:09:39.168Z,99.90
2022-09-03T04:12:08.676Z,99.90
2022-09-03T04:14:35.498Z,99.90
2022-09-03T04:17:03.146Z,99.90
2022-09-03T04:19:30.160Z,99.90
2022-09-03T04:21:57.088Z,99.90
2022-09-03T04:24:23.945Z,99.90
2022-09-03T04:26:50.656Z,99.90
2022-09-03T04:29:18.281Z,99.90
2022-09-03T04:32:04.996Z,99.90
2022-09-03T04:34:31.588Z,99.90
2022-09-03T04:36:59.111Z,99.90
2022-09-03T04:39:26.227Z,99.90
2022-09-03T04:41:52.953Z,99.90
2022-09-03T04:44:19.547Z,99.90
2022-09-03T04:46:47.821Z,99.90
2022-09-03T04:49:15.068Z,99.90
2022-09-03T04:51:41.920Z,99.90
2022-09-03T04:54:10.208Z,99.90
2022-09-03T04:56:40.235Z,99.90
2022-09-03T04:59:09.471Z,99.90
2022-09-03T05:01:38.778Z,99.90
2022-09-03T05:04:06.397Z,99.90
2022-09-03T05:06:34.684Z,99.90
2022-09-03T05:09:01.797Z,99.90
2022-09-03T05:11:29.995Z,99.90
2022-09-03T05:13:58.791Z,99.90
2022-09-03T05:16:28.148Z,99.90
2022-09-03T05:18:56.735Z,99.90
2022-09-03T05:21:24.498Z,99.90
2022-09-03T05:23:52.758Z,99.90
2022-09-03T05:26:22.093Z,99.90
2022-09-03T05:28:52.370Z,99.90
2022-09-03T05:31:20.267Z,99.90
2022-09-03T05:33:49.560Z,99.90
2022-09-03T05:36:19.521Z,99.90
2022-09-03T05:38:47.611Z,99.90
2022-09-03T05:41:16.130Z,99.90
2022-09-03T05:43:43.651Z,99.90
2022-09-03T05:46:18.795Z,99.90
2022-09-03T05:48:45.554Z,99.90
2022-09-03T05:51:16.451Z,99.90
2022-09-03T05:53:45.583Z,99.90
2022-09-03T05:56:17.966Z,99.90
2022-09-03T05:58:48.852Z,99.90
2022-09-03T06:01:23.622Z,99.90
2022-09-03T06:04:01.571Z,99.90
2022-09-03T06:06:30.176Z,99.90
2022-09-03T06:09:02.646Z,99.90
2022-09-03T06:11:30.874Z,99.90
2022-09-03T06:14:00.270Z,99.90
2022-09-03T06:16:31.907Z,99.90
2022-09-03T06:18:59.781Z,99.90
2022-09-03T06:21:26.559Z,99.90
2022-09-03T06:23:56.776Z,99.90
2022-09-03T06:26:28.084Z,99.90
2022-09-03T06:28:56.147Z,99.90
2022-09-03T06:31:23.567Z,99.90
2022-09-03T06:33:50.577Z,99.90
2022-09-03T06:36:19.801Z,99.90
2022-09-03T06:38:47.322Z,99.90
2022-09-03T06:41:26.049Z,99.90
2022-09-03T06:43:59.075Z,99.90
2022-09-03T06:46:25.739Z,99.90
2022-09-03T06:48:53.339Z,99.90
2022-09-03T06:51:22.742Z,99.90
2022-09-03T06:53:51.463Z,99.90
2022-09-03T06:56:23.445Z,99.90
2022-09-03T06:58:50.580Z,99.90
2022-09-03T07:01:23.311Z,99.90
2022-09-03T07:03:57.196Z,99.90
2022-09-03T07:06:26.049Z,99.90
2022-09-03T07:08:53.163Z,99.90
2022-09-03T07:11:24.072Z,99.90
2022-09-03T07:13:52.138Z,99.90
2022-09-03T07:16:21.700Z,99.90
2022-09-03T07:18:49.265Z,99.90
2022-09-03T07:21:19.209Z,99.90
2022-09-03T07:23:46.831Z,99.90
2022-09-03T07:26:22.564Z,99.30
2022-09-03T07:28:50.380Z,98.60
2022-09-03T07:31:20.473Z,98.90
2022-09-03T07:33:47.350Z,98.40
2022-09-03T07:36:17.742Z,98.40
2022-09-03T07:38:45.395Z,98.40
2022-09-03T07:41:17.598Z,97.90
2022-09-03T07:43:55.080Z,97.10
2022-09-03T07:46:24.753Z,97.00
2022-09-03T07:48:53.116Z,97.30
2022-09-03T07:51:22.496Z,96.80
2022-09-03T07:53:49.339Z,97.10
2022-09-03T07:56:17.812Z,97.50
2022-09-03T07:58:44.434Z,96.70
2022-09-03T08:01:20.872Z,96.50
2022-09-03T08:03:50.307Z,96.20
2022-09-03T08:06:18.763Z,96.10
2022-09-03T08:08:45.693Z,96.30
2022-09-03T08:11:17.988Z,96.00
2022-09-03T08:13:48.146Z,96.00
2022-09-03T08:16:17.129Z,95.60
2022-09-03T08:18:43.855Z,95.30
2022-09-03T08:21:16.002Z,95.80
2022-09-03T08:23:44.791Z,95.60
2022-09-03T08:26:12.343Z,95.70
2022-09-03T08:28:39.318Z,95.40
2022-09-03T08:31:13.252Z,95.50
2022-09-03T08:33:43.110Z,95.70
2022-09-03T08:36:18.075Z,95.30
2022-09-03T08:38:46.437Z,95.50
2022-09-03T08:41:20.495Z,95.70
2022-09-03T08:44:16.404Z,95.60
2022-09-03T08:47:05.814Z,95.30
2022-09-03T08:49:46.256Z,94.90
2022-09-03T08:52:42.285Z,94.80
2022-09-03T08:55:29.591Z,94.20
2022-09-03T08:58:10.865Z,94.20
2022-09-03T09:00:54.022Z,94.30
2022-09-03T09:03:58.222Z,94.40
2022-09-03T09:06:43.760Z,94.10
2022-09-03T09:09:20.420Z,93.70
2022-09-03T09:12:09.377Z,93.80
2022-09-03T09:15:05.961Z,93.50
2022-09-03T09:18:09.717Z,93.40
2022-09-03T09:20:47.529Z,93.30
2022-09-03T09:23:19.299Z,93.40
2022-09-03T09:25:50.098Z,93.50
2022-09-03T09:28:22.719Z,92.70
2022-09-03T09:30:51.692Z,91.90
2022-09-03T09:33:20.885Z,91.50
2022-09-03T09:35:49.010Z,91.80
2022-09-03T09:38:16.582Z,91.70
2022-09-03T09:40:45.558Z,91.20
2022-09-03T09:43:15.858Z,90.10
2022-09-03T09:45:45.089Z,88.90
2022-09-03T09:48:31.140Z,89.50
2022-09-03T09:51:09.036Z,88.70
2022-09-03T09:53:36.205Z,87.40
2022-09-03T09:56:03.240Z,88.20
2022-09-03T09:58:33.138Z,86.60
2022-09-03T10:01:15.082Z,86.10
2022-09-03T10:03:59.818Z,86.50
2022-09-03T10:06:48.534Z,81.90
2022-09-03T10:09:18.479Z,81.10
2022-09-03T10:11:50.791Z,81.70
2022-09-03T10:14:35.374Z,80.60
2022-09-03T10:17:19.771Z,79.00
2022-09-03T10:20:29.547Z,80.30
2022-09-03T10:23:03.123Z,80.10
2022-09-03T10:25:56.022Z,78.70
2022-09-03T10:28:27.437Z,77.60
2022-09-03T10:31:11.251Z,77.00
2022-09-03T10:33:59.340Z,74.70
2022-09-03T10:36:39.793Z,76.00
2022-09-03T10:39:19.682Z,75.80
2022-09-03T10:42:22.131Z,74.30
2022-09-03T10:44:53.871Z,73.10
2022-09-03T10:47:59.578Z,73.30
2022-09-03T10:50:31.988Z,74.30
2022-09-03T10:53:26.115Z,73.90
2022-09-03T10:56:08.819Z,73.50
2022-09-03T10:58:49.637Z,73.70
2022-09-03T11:01:51.639Z,72.40
2022-09-03T11:04:40.022Z,72.30
2022-09-03T11:07:10.135Z,72.80
2022-09-03T11:10:04.085Z,72.70
2022-09-03T11:12:42.292Z,72.80
2022-09-03T11:15:27.209Z,71.80
2022-09-03T11:18:20.660Z,72.20
2022-09-03T11:20:49.414Z,72.60
2022-09-03T11:23:17.208Z,71.40
2022-09-03T11:25:52.554Z,70.60
2022-09-03T11:28:51.947Z,70.10
2022-09-03T11:31:41.344Z,69.10
2022-09-03T11:34:19.635Z,69.00
2022-09-03T11:36:50.493Z,68.50
2022-09-03T11:39:33.259Z,68.80
2022-09-03T11:42:06.630Z,69.70
2022-09-03T11:44:51.434Z,67.80
2022-09-03T11:47:38.212Z,67.70
2022-09-03T11:50:20.616Z,67.90
2022-09-03T11:52:49.020Z,68.00
2022-09-03T11:55:38.222Z,68.50
2022-09-03T11:58:18.611Z,69.00
2022-09-03T12:00:46.019Z,68.80
2022-09-03T12:03:17.906Z,68.20
2022-09-03T12:06:10.174Z,68.20
2022-09-03T12:08:55.598Z,68.50
2022-09-03T12:11:58.341Z,68.60
2022-09-03T12:15:01.410Z,69.90
2022-09-03T12:18:20.819Z,70.20
2022-09-03T12:21:00.881Z,70.00
2022-09-03T12:23:31.591Z,69.40
2022-09-03T12:26:08.397Z,68.00
2022-09-03T12:28:38.154Z,67.60
2022-09-03T12:31:28.049Z,68.00
2022-09-03T12:33:59.172Z,67.30
2022-09-03T12:36:35.821Z,66.60
2022-09-03T12:39:18.830Z,66.00
2022-09-03T12:42:01.465Z,64.80
2022-09-03T12:44:31.362Z,64.00
2022-09-03T12:47:35.559Z,63.60
2022-09-03T12:50:08.561Z,62.90
2022-09-03T12:52:56.260Z,62.70
2022-09-03T12:55:40.516Z,63.40
2022-09-03T12:58:56.079Z,62.60
2022-09-03T13:01:31.230Z,62.60
2022-09-03T13:04:12.012Z,61.70
2022-09-03T13:06:53.877Z,61.70
2022-09-03T13:09:26.845Z,62.50
2022-09-03T13:11:55.416Z,63.10
2022-09-03T13:14:22.694Z,62.90
2022-09-03T13:17:16.807Z,62.40
2022-09-03T13:20:07.966Z,62.10
2022-09-03T13:22:59.187Z,62.30
2022-09-03T13:25:52.936Z,61.90
2022-09-03T13:28:31.851Z,61.30
2022-09-03T13:31:32.815Z,61.80
2022-09-03T13:34:16.123Z,60.60
2022-09-03T13:36:54.575Z,60.10
2022-09-03T13:39:43.869Z,61.30
2022-09-03T13:42:31.213Z,61.20
2022-09-03T13:45:25.509Z,60.40
2022-09-03T13:48:34.900Z,59.90
2022-09-03T13:51:15.575Z,60.30
2022-09-03T13:54:00.079Z,60.60
2022-09-03T13:56:44.977Z,61.10
2022-09-03T13:59:36.017Z,60.70
2022-09-03T14:02:22.943Z,61.10
2022-09-03T14:04:58.410Z,60.50
2022-09-03T14:07:55.990Z,61.30
2022-09-03T14:10:31.617Z,60.50
2022-09-03T14:13:25.020Z,60.60
2022-09-03T14:16:21.181Z,60.20
2022-09-03T14:19:03.311Z,59.70
2022-09-03T14:21:36.544Z,59.80
2022-09-03T14:24:16.211Z,59.90
2022-09-03T14:27:02.284Z,59.80
2022-09-03T14:29:34.497Z,60.10
2022-09-03T14:32:23.270Z,60.30
2022-09-03T14:35:11.503Z,61.00
2022-09-03T14:37:54.303Z,60.50
2022-09-03T14:40:38.962Z,59.80
2022-09-03T14:43:37.417Z,59.90
2022-09-03T14:46:06.066Z,59.70
2022-09-03T14:48:56.449Z,59.90
2022-09-03T14:51:50.630Z,60.10
2022-09-03T14:54:49.944Z,60.60
2022-09-03T14:57:48.210Z,60.80
2022-09-03T15:00:20.011Z,59.90
2022-09-03T15:03:08.321Z,59.40
2022-09-03T15:06:04.944Z,59.90
2022-09-03T15:08:55.424Z,60.30
2022-09-03T15:11:26.403Z,60.30
2022-09-03T15:14:09.540Z,60.80
2022-09-03T15:16:48.103Z,61.60
2022-09-03T15:19:43.445Z,60.00
2022-09-03T15:22:28.119Z,61.40
2022-09-03T15:25:06.855Z,61.60
2022-09-03T15:28:12.104Z,61.80
2022-09-03T15:30:50.381Z,62.10
2022-09-03T15:33:46.784Z,61.70
2022-09-03T15:36:23.562Z,60.90
2022-09-03T15:38:57.149Z,61.20
2022-09-03T15:41:46.225Z,60.90
2022-09-03T15:44:19.151Z,61.30
2022-09-03T15:46:58.881Z,61.30
2022-09-03T15:49:36.589Z,61.40
2022-09-03T15:52:27.570Z,61.70
2022-09-03T15:55:26.111Z,61.60
2022-09-03T15:58:10.349Z,61.90
2022-09-03T16:01:03.031Z,61.70
2022-09-03T16:03:57.886Z,61.40
2022-09-03T16:07:08.054Z,61.80
2022-09-03T16:10:22.547Z,61.70
2022-09-03T16:13:01.638Z,61.90
2022-09-03T16:15:35.991Z,61.90
2022-09-03T16:18:25.102Z,62.40
2022-09-03T16:20:59.960Z,61.90
2022-09-03T16:23:41.319Z,62.50
2022-09-03T16:26:14.795Z,62.70
2022-09-03T16:28:53.641Z,62.40
2022-09-03T16:32:05.044Z,62.90
2022-09-03T16:35:14.797Z,62.70
2022-09-03T16:38:01.049Z,62.90
2022-09-03T16:40:37.935Z,63.00
2022-09-03T16:43:41.946Z,63.20
2022-09-03T16:46:24.239Z,63.80
2022-09-03T16:49:13.173Z,64.00
2022-09-03T16:52:06.946Z,64.20
2022-09-03T16:55:04.391Z,64.30
2022-09-03T16:58:00.932Z,64.20
2022-09-03T17:00:56.363Z,63.90
2022-09-03T17:03:57.213Z,64.50
2022-09-03T17:06:46.526Z,64.70
2022-09-03T17:09:34.873Z,65.00
2022-09-03T17:12:10.776Z,65.20
2022-09-03T17:15:07.063Z,65.60
2022-09-03T17:17:56.049Z,65.70
2022-09-03T17:20:38.364Z,65.60
2022-09-03T17:23:10.737Z,66.00
2022-09-03T17:25:39.993Z,66.30
2022-09-03T17:28:35.342Z,66.70
2022-09-03T17:31:26.729Z,66.60
2022-09-03T17:34:09.825Z,66.50
2022-09-03T17:36:53.510Z,66.90
2022-09-03T17:39:48.584Z,67.00
2022-09-03T17:42:49.215Z,65.90
2022-09-03T17:45:56.516Z,66.90
2022-09-03T17:48:44.309Z,67.30
2022-09-03T17:51:42.800Z,67.50
2022-09-03T17:54:21.116Z,67.50
2022-09-03T17:57:26.765Z,67.60
2022-09-03T18:00:10.768Z,67.90
2022-09-03T18:02:45.354Z,68.00
2022-09-03T18:05:50.537Z,68.10
2022-09-03T18:08:33.554Z,68.50
2022-09-03T18:11:14.392Z,68.80
2022-09-03T18:14:09.296Z,68.90
2022-09-03T18:16:48.681Z,69.10
2022-09-03T18:19:30.667Z,69.10
2022-09-03T18:22:20.764Z,70.00
2022-09-03T18:25:13.257Z,69.60
2022-09-03T18:28:02.743Z,69.80
2022-09-03T18:30:47.967Z,70.00
2022-09-03T18:33:47.590Z,70.10
2022-09-03T18:36:33.221Z,69.60
2022-09-03T18:39:43.000Z,69.90
2022-09-03T18:43:02.745Z,70.10
2022-09-03T18:49:33.570Z,70.20
2022-09-03T18:52:44.659Z,70.30
2022-09-03T18:55:43.379Z,70.50
2022-09-03T18:59:08.944Z,70.50
2022-09-03T19:01:57.162Z,70.70
2022-09-03T19:05:35.749Z,71.00
2022-09-03T19:08:38.733Z,70.90
2022-09-03T19:11:46.544Z,71.30
2022-09-03T19:15:18.176Z,71.00
2022-09-03T19:18:38.371Z,71.10
2022-09-03T19:21:41.297Z,71.50
2022-09-03T19:24:26.732Z,72.00
2022-09-03T19:27:55.303Z,72.50
2022-09-03T19:31:03.640Z,72.60
2022-09-03T19:34:01.187Z,72.40
2022-09-03T19:36:56.359Z,72.70
2022-09-03T19:40:19.769Z,72.80
2022-09-03T19:43:31.632Z,73.00
2022-09-03T19:46:37.599Z,72.90
2022-09-03T19:49:50.611Z,73.20
2022-09-03T19:52:50.662Z,73.50
2022-09-03T19:55:43.125Z,73.50
2022-09-03T19:58:42.533Z,73.50
2022-09-03T20:01:28.763Z,73.70
2022-09-03T20:04:17.506Z,74.60
2022-09-03T20:07:03.895Z,73.90
2022-09-03T20:09:56.471Z,74.10
2022-09-03T20:12:25.134Z,74.10
2022-09-03T20:14:51.794Z,74.30
2022-09-03T20:17:52.273Z,73.90
2022-09-03T20:20:43.736Z,74.00
2022-09-03T20:23:23.028Z,74.10
2022-09-03T20:26:08.451Z,74.30
2022-09-03T20:29:18.527Z,74.30
2022-09-03T20:32:02.334Z,74.50
2022-09-03T20:34:44.063Z,74.30
2022-09-03T20:37:15.083Z,74.50
2022-09-03T20:40:14.625Z,74.40
2022-09-03T20:43:00.938Z,74.70
2022-09-03T20:45:46.290Z,74.70
2022-09-03T20:48:23.775Z,74.80
2022-09-03T20:51:12.112Z,74.70
2022-09-03T20:54:08.586Z,74.80
2022-09-03T20:56:56.320Z,74.70
2022-09-03T21:00:02.340Z,74.70
2022-09-03T21:02:48.504Z,74.80
2022-09-03T21:05:26.964Z,74.70
2022-09-03T21:08:35.777Z,74.70
2022-09-03T21:11:11.039Z,74.80
2022-09-03T21:13:48.499Z,74.90
2022-09-03T21:16:56.657Z,75.10
2022-09-03T21:19:53.933Z,75.60
2022-09-03T21:22:32.657Z,75.00
2022-09-03T21:25:04.353Z,74.80
2022-09-03T21:27:41.452Z,74.70
2022-09-03T21:30:19.772Z,75.00
2022-09-03T21:33:02.981Z,74.90
2022-09-03T21:35:35.826Z,74.80
2022-09-03T21:38:14.606Z,74.70
2022-09-03T21:40:59.221Z,74.90
2022-09-03T21:43:35.039Z,75.00
2022-09-03T21:46:09.327Z,76.40
2022-09-03T21:48:43.098Z,75.00
2022-09-03T21:51:17.047Z,74.80
2022-09-03T21:53:49.199Z,74.80
2022-09-03T21:56:21.908Z,75.10
2022-09-03T21:59:08.908Z,75.10
2022-09-03T22:01:56.671Z,75.20
2022-09-03T22:04:29.008Z,75.30
2022-09-03T22:07:21.182Z,75.50
2022-09-03T22:10:12.685Z,75.70
2022-09-03T22:13:09.332Z,75.80
2022-09-03T22:15:39.340Z,75.90
2022-09-03T22:18:17.464Z,76.20
2022-09-03T22:20:57.838Z,76.30
2022-09-03T22:23:30.546Z,76.40
2022-09-03T22:26:04.999Z,76.50
2022-09-03T22:28:45.349Z,76.80
2022-09-03T22:31:36.022Z,77.00
2022-09-03T22:34:27.815Z,77.30
2022-09-03T22:37:03.554Z,77.40
2022-09-03T22:39:41.270Z,77.60
2022-09-03T22:42:26.908Z,77.60
2022-09-03T22:45:03.501Z,77.70
2022-09-03T22:47:49.608Z,77.80
2022-09-03T22:50:35.183Z,78.00
2022-09-03T22:53:27.512Z,78.00
2022-09-03T22:56:15.719Z,78.20
2022-09-03T22:59:03.465Z,78.30
2022-09-03T23:01:56.659Z,78.30
2022-09-03T23:05:06.470Z,78.40
2022-09-03T23:07:52.627Z,78.60
2022-09-03T23:10:30.873Z,78.60
2022-09-03T23:13:14.706Z,78.60
2022-09-03T23:15:42.291Z,78.60
2022-09-03T23:18:17.682Z,78.80
2022-09-03T23:21:01.179Z,78.90
2022-09-03T23:23:57.319Z,79.10
2022-09-03T23:26:34.439Z,79.50
2022-09-03T23:29:13.425Z,79.50
2022-09-03T23:31:40.141Z,79.70
2022-09-03T23:34:10.037Z,80.00
2022-09-03T23:39:59.468Z,80.20
2022-09-03T23:42:44.855Z,80.60
2022-09-03T23:45:35.850Z,80.80
2022-09-03T23:48:24.622Z,81.00
2022-09-03T23:51:32.975Z,81.30
2022-09-03T23:54:19.750Z,81.50
2022-09-03T23:57:03.638Z,81.80
